< < Back
Terminal Aerodrome Forecast


Current Version              Previous Versions:   1  2  3  4  5  6  7  8  9  

Terminal Aerodrome Forecast

168
FTUS42 KGSP 030924 AAB
TAFHKY
TAF AMD
KHKY 030924Z 0309/0406 19003KT 6SM BR BKN003 OVC100
     FM031300 20003KT P6SM VCSH BKN020
     FM031600 20005KT P6SM -SHRA BKN035 PROB30 0318/0320 4SM TSRA
      BKN025CB
     FM032000 21008KT P6SM -SHRA VCTS OVC035CB
     FM040400 26007KT P6SM BKN120=



Latest METAR

965
SAUS70 KWBC 030800 RRD
MTRHKY
METAR KHKY 030753Z AUTO 19004KT 10SM OVC005 21/19 A2993 RMK AO2 SLP112
T02060189


USA.gov is the U.S. government's official web portal to all federal, state and local government web resources and services.